sensor_id;sensor_type;location;lat;lon;timestamp;pressure;altitude;pressure_sealevel;temperature;humidity
54556;BME280;57291;37.520;15.106;2024-03-25T00:00:15;100434.66;;;14.74;100.00
54556;BME280;57291;37.520;15.106;2024-03-25T00:02:42;100433.53;;;14.75;100.00
54556;BME280;57291;37.520;15.106;2024-03-25T00:05:10;100419.84;;;14.75;99.83
54556;BME280;57291;37.520;15.106;2024-03-25T00:07:37;100415.31;;;14.79;97.40
54556;BME280;57291;37.520;15.106;2024-03-25T00:10:05;100422.06;;;14.82;97.19
54556;BME280;57291;37.520;15.106;2024-03-25T00:12:35;100423.81;;;14.86;96.40
54556;BME280;57291;37.520;15.106;2024-03-25T00:15:02;100420.09;;;14.91;95.94
54556;BME280;57291;37.520;15.106;2024-03-25T00:17:28;100421.69;;;14.92;97.76
54556;BME280;57291;37.520;15.106;2024-03-25T00:19:55;100425.09;;;14.89;99.12
54556;BME280;57291;37.520;15.106;2024-03-25T00:22:22;100432.00;;;14.86;100.00
54556;BME280;57291;37.520;15.106;2024-03-25T00:24:51;100419.34;;;14.82;100.00
54556;BME280;57291;37.520;15.106;2024-03-25T00:27:17;100413.72;;;14.78;100.00
54556;BME280;57291;37.520;15.106;2024-03-25T00:29:44;100428.88;;;14.75;100.00
54556;BME280;57291;37.520;15.106;2024-03-25T00:32:10;100426.00;;;14.72;100.00
54556;BME280;57291;37.520;15.106;2024-03-25T00:34:37;100426.00;;;14.72;100.00
54556;BME280;57291;37.520;15.106;2024-03-25T00:37:03;100409.22;;;14.73;100.00
54556;BME280;57291;37.520;15.106;2024-03-25T00:39:30;100404.56;;;14.74;100.00
54556;BME280;57291;37.520;15.106;2024-03-25T00:42:00;100401.81;;;14.74;100.00
54556;BME280;57291;37.520;15.106;2024-03-25T00:44:27;100402.66;;;14.74;100.00
54556;BME280;57291;37.520;15.106;2024-03-25T00:46:53;100408.25;;;14.78;99.38
54556;BME280;57291;37.520;15.106;2024-03-25T00:49:19;100407.91;;;14.80;100.00
54556;BME280;57291;37.520;15.106;2024-03-25T00:51:47;100413.19;;;14.85;99.50
54556;BME280;57291;37.520;15.106;2024-03-25T00:54:13;100401.13;;;14.86;100.00
54556;BME280;57291;37.520;15.106;2024-03-25T00:56:39;100392.63;;;14.78;100.00
54556;BME280;57291;37.520;15.106;2024-03-25T00:59:06;100398.78;;;14.75;100.00
54556;BME280;57291;37.520;15.106;2024-03-25T01:01:32;100399.59;;;14.67;100.00
54556;BME280;57291;37.520;15.106;2024-03-25T01:04:02;100386.44;;;14.61;100.00
54556;BME280;57291;37.520;15.106;2024-03-25T01:06:28;100388.59;;;14.55;100.00
54556;BME280;57291;37.520;15.106;2024-03-25T01:08:57;100380.38;;;14.55;100.00
54556;BME280;57291;37.520;15.106;2024-03-25T01:11:23;100378.44;;;14.56;100.00
54556;BME280;57291;37.520;15.106;2024-03-25T01:13:49;100390.84;;;14.53;100.00
54556;BME280;57291;37.520;15.106;2024-03-25T01:16:15;100381.06;;;14.52;100.00
54556;BME280;57291;37.520;15.106;2024-03-25T01:18:41;100379.91;;;14.53;100.00
54556;BME280;57291;37.520;15.106;2024-03-25T01:21:07;100380.25;;;14.51;100.00
54556;BME280;57291;37.520;15.106;2024-03-25T01:23:34;100373.97;;;14.51;100.00
54556;BME280;57291;37.520;15.106;2024-03-25T01:26:00;100379.44;;;14.51;100.00
54556;BME280;57291;37.520;15.106;2024-03-25T01:28:28;100377.81;;;14.50;100.00
54556;BME280;57291;37.520;15.106;2024-03-25T01:30:54;100377.81;;;14.50;100.00
54556;BME280;57291;37.520;15.106;2024-03-25T01:33:21;100374.78;;;14.51;100.00
54556;BME280;57291;37.520;15.106;2024-03-25T01:35:47;100374.78;;;14.51;100.00
54556;BME280;57291;37.520;15.106;2024-03-25T01:38:14;100379.25;;;14.56;100.00
54556;BME280;57291;37.520;15.106;2024-03-25T01:40:40;100380.97;;;14.61;100.00
54556;BME280;57291;37.520;15.106;2024-03-25T01:43:07;100371.47;;;14.67;100.00
54556;BME280;57291;37.520;15.106;2024-03-25T01:45:34;100367.75;;;14.71;100.00
54556;BME280;57291;37.520;15.106;2024-03-25T01:48:08;100363.34;;;14.79;100.00
54556;BME280;57291;37.520;15.106;2024-03-25T01:50:38;100349.13;;;14.86;100.00
54556;BME280;57291;37.520;15.106;2024-03-25T01:53:07;100329.94;;;14.94;99.13
54556;BME280;57291;37.520;15.106;2024-03-25T01:55:35;100333.72;;;15.02;97.42
54556;BME280;57291;37.520;15.106;2024-03-25T01:58:02;100330.94;;;15.11;96.30
54556;BME280;57291;37.520;15.106;2024-03-25T02:00:31;100337.31;;;15.15;95.75
54556;BME280;57291;37.520;15.106;2024-03-25T02:02:58;100338.59;;;15.17;95.29
54556;BME280;57291;37.520;15.106;2024-03-25T02:05:24;100331.97;;;15.18;95.07
54556;BME280;57291;37.520;15.106;2024-03-25T02:07:52;100324.91;;;15.17;94.93
54556;BME280;57291;37.520;15.106;2024-03-25T02:10:18;100334.38;;;15.20;94.21
54556;BME280;57291;37.520;15.106;2024-03-25T02:12:46;100334.03;;;15.21;93.92
54556;BME280;57291;37.520;15.106;2024-03-25T02:15:12;100329.72;;;15.20;93.50
54556;BME280;57291;37.520;15.106;2024-03-25T02:17:39;100315.91;;;15.17;93.34
54556;BME280;57291;37.520;15.106;2024-03-25T02:20:09;100321.69;;;15.15;93.13
54556;BME280;57291;37.520;15.106;2024-03-25T02:22:36;100328.31;;;15.14;93.30
54556;BME280;57291;37.520;15.106;2024-03-25T02:25:06;100335.91;;;15.09;93.06
54556;BME280;57291;37.520;15.106;2024-03-25T02:27:35;100331.25;;;15.09;93.12
54556;BME280;57291;37.520;15.106;2024-03-25T02:30:08;100318.72;;;15.08;93.24
54556;BME280;57291;37.520;15.106;2024-03-25T02:32:35;100309.81;;;15.11;92.90
54556;BME280;57291;37.520;15.106;2024-03-25T02:35:11;100302.06;;;15.13;92.12
54556;BME280;57291;37.520;15.106;2024-03-25T02:37:38;100294.78;;;15.17;91.47
54556;BME280;57291;37.520;15.106;2024-03-25T02:40:06;100302.66;;;15.19;90.71
54556;BME280;57291;37.520;15.106;2024-03-25T02:42:33;100309.28;;;15.18;89.41
54556;BME280;57291;37.520;15.106;2024-03-25T02:44:59;100310.44;;;15.17;88.12
54556;BME280;57291;37.520;15.106;2024-03-25T02:47:26;100313.28;;;15.20;86.58
54556;BME280;57291;37.520;15.106;2024-03-25T02:49:52;100307.72;;;15.29;83.59
54556;BME280;57291;37.520;15.106;2024-03-25T02:52:19;100301.25;;;15.34;81.65
54556;BME280;57291;37.520;15.106;2024-03-25T02:54:48;100310.13;;;15.31;81.99
54556;BME280;57291;37.520;15.106;2024-03-25T02:57:15;100306.44;;;15.27;81.66
54556;BME280;57291;37.520;15.106;2024-03-25T02:59:41;100297.78;;;15.24;81.41
54556;BME280;57291;37.520;15.106;2024-03-25T03:02:07;100295.72;;;15.21;81.67
54556;BME280;57291;37.520;15.106;2024-03-25T03:04:33;100289.91;;;15.23;81.74
54556;BME280;57291;37.520;15.106;2024-03-25T03:06:59;100281.34;;;15.24;80.98
54556;BME280;57291;37.520;15.106;2024-03-25T03:09:27;100279.78;;;15.23;80.86
54556;BME280;57291;37.520;15.106;2024-03-25T03:11:53;100277.47;;;15.25;80.50
54556;BME280;57291;37.520;15.106;2024-03-25T03:14:19;100272.00;;;15.25;80.28
54556;BME280;57291;37.520;15.106;2024-03-25T03:16:46;100261.97;;;15.30;79.92
54556;BME280;57291;37.520;15.106;2024-03-25T03:19:12;100258.91;;;15.31;79.58
54556;BME280;57291;37.520;15.106;2024-03-25T03:21:38;100267.44;;;15.30;79.44
54556;BME280;57291;37.520;15.106;2024-03-25T03:24:05;100275.88;;;15.24;79.40
54556;BME280;57291;37.520;15.106;2024-03-25T03:26:31;100284.28;;;15.19;79.60
54556;BME280;57291;37.520;15.106;2024-03-25T03:28:58;100285.63;;;15.13;80.07
54556;BME280;57291;37.520;15.106;2024-03-25T03:31:25;100293.72;;;15.10;80.09
54556;BME280;57291;37.520;15.106;2024-03-25T03:33:52;100296.13;;;15.11;78.52
54556;BME280;57291;37.520;15.106;2024-03-25T03:36:20;100287.94;;;15.11;78.17
54556;BME280;57291;37.520;15.106;2024-03-25T03:38:46;100285.63;;;15.13;77.21
54556;BME280;57291;37.520;15.106;2024-03-25T03:41:13;100288.84;;;15.15;76.64
54556;BME280;57291;37.520;15.106;2024-03-25T03:43:39;100296.88;;;15.20;74.96
54556;BME280;57291;37.520;15.106;2024-03-25T03:46:05;100306.31;;;15.23;74.23
54556;BME280;57291;37.520;15.106;2024-03-25T03:48:32;100299.13;;;15.18;74.32
54556;BME280;57291;37.520;15.106;2024-03-25T03:50:58;100305.06;;;15.20;73.42
54556;BME280;57291;37.520;15.106;2024-03-25T03:53:24;100290.00;;;15.27;72.08
54556;BME280;57291;37.520;15.106;2024-03-25T03:58:22;100296.69;;;15.38;71.26
54556;BME280;57291;37.520;15.106;2024-03-25T04:00:48;100299.06;;;15.39;71.56
54556;BME280;57291;37.520;15.106;2024-03-25T04:03:15;100301.69;;;15.36;71.76
54556;BME280;57291;37.520;15.106;2024-03-25T04:05:41;100298.81;;;15.32;71.54
54556;BME280;57291;37.520;15.106;2024-03-25T04:08:07;100296.75;;;15.29;71.81
54556;BME280;57291;37.520;15.106;2024-03-25T04:10:37;100294.69;;;15.26;71.76
54556;BME280;57291;37.520;15.106;2024-03-25T04:13:04;100302.78;;;15.22;71.74
54556;BME280;57291;37.520;15.106;2024-03-25T04:15:37;100305.53;;;15.22;71.47
54556;BME280;57291;37.520;15.106;2024-03-25T04:18:04;100287.50;;;15.21;71.55
54556;BME280;57291;37.520;15.106;2024-03-25T04:20:37;100272.91;;;15.17;71.53
54556;BME280;57291;37.520;15.106;2024-03-25T04:23:05;100288.53;;;15.17;71.66
54556;BME280;57291;37.520;15.106;2024-03-25T04:25:34;100290.44;;;15.16;71.85
54556;BME280;57291;37.520;15.106;2024-03-25T04:28:00;100288.84;;;15.15;71.72
54556;BME280;57291;37.520;15.106;2024-03-25T04:30:26;100285.78;;;15.17;71.81
54556;BME280;57291;37.520;15.106;2024-03-25T04:32:53;100296.88;;;15.20;71.84
54556;BME280;57291;37.520;15.106;2024-03-25T04:35:19;100282.81;;;15.22;71.84
54556;BME280;57291;37.520;15.106;2024-03-25T04:37:45;100293.91;;;15.25;71.93
54556;BME280;57291;37.520;15.106;2024-03-25T04:40:12;100294.03;;;15.29;72.05
54556;BME280;57291;37.520;15.106;2024-03-25T04:42:45;100277.94;;;15.28;72.46
54556;BME280;57291;37.520;15.106;2024-03-25T04:45:11;100301.31;;;15.25;72.76
54556;BME280;57291;37.520;15.106;2024-03-25T04:47:38;100308.50;;;15.30;72.75
54556;BME280;57291;37.520;15.106;2024-03-25T04:50:04;100292.75;;;15.27;73.09
54556;BME280;57291;37.520;15.106;2024-03-25T04:52:31;100305.53;;;15.22;73.27
54556;BME280;57291;37.520;15.106;2024-03-25T04:54:57;100318.88;;;15.24;73.75
54556;BME280;57291;37.520;15.106;2024-03-25T04:57:24;100301.66;;;15.23;73.93
54556;BME280;57291;37.520;15.106;2024-03-25T04:59:52;100306.31;;;15.23;74.18
54556;BME280;57291;37.520;15.106;2024-03-25T05:02:18;100318.75;;;15.20;74.23
54556;BME280;57291;37.520;15.106;2024-03-25T05:04:45;100313.72;;;15.22;74.33
54556;BME280;57291;37.520;15.106;2024-03-25T05:07:11;100314.53;;;15.23;73.94
54556;BME280;57291;37.520;15.106;2024-03-25T05:09:37;100323.56;;;15.23;74.09
54556;BME280;57291;37.520;15.106;2024-03-25T05:12:04;100321.94;;;15.22;74.15
54556;BME280;57291;37.520;15.106;2024-03-25T05:14:30;100320.84;;;15.23;73.98
54556;BME280;57291;37.520;15.106;2024-03-25T05:16:56;100321.63;;;15.24;73.90
54556;BME280;57291;37.520;15.106;2024-03-25T05:19:22;100315.94;;;15.29;73.93
54556;BME280;57291;37.520;15.106;2024-03-25T05:21:49;100308.63;;;15.33;73.73
54556;BME280;57291;37.520;15.106;2024-03-25T05:24:15;100307.63;;;15.38;73.63
54556;BME280;57291;37.520;15.106;2024-03-25T05:26:41;100323.72;;;15.39;73.50
54556;BME280;57291;37.520;15.106;2024-03-25T05:29:07;100328.66;;;15.46;73.20
54556;BME280;57291;37.520;15.106;2024-03-25T05:31:35;100338.25;;;15.52;72.90
54556;BME280;57291;37.520;15.106;2024-03-25T05:34:01;100348.22;;;15.57;72.78
54556;BME280;57291;37.520;15.106;2024-03-25T05:36:34;100348.47;;;15.64;72.45
54556;BME280;57291;37.520;15.106;2024-03-25T05:39:00;100324.06;;;15.71;72.40
54556;BME280;57291;37.520;15.106;2024-03-25T05:41:26;100326.50;;;15.85;72.35
54556;BME280;57291;37.520;15.106;2024-03-25T05:43:53;100332.31;;;15.95;71.94
54556;BME280;57291;37.520;15.106;2024-03-25T05:46:19;100341.38;;;16.08;71.40
54556;BME280;57291;37.520;15.106;2024-03-25T05:48:45;100341.16;;;16.26;71.21
54556;BME280;57291;37.520;15.106;2024-03-25T05:51:11;100341.59;;;16.40;70.81
54556;BME280;57291;37.520;15.106;2024-03-25T05:53:37;100339.06;;;16.59;70.51
54556;BME280;57291;37.520;15.106;2024-03-25T05:56:04;100349.81;;;16.77;70.57
54556;BME280;57291;37.520;15.106;2024-03-25T05:58:31;100351.16;;;16.95;69.77
54556;BME280;57291;37.520;15.106;2024-03-25T06:00:57;100353.38;;;17.18;68.80
54556;BME280;57291;37.520;15.106;2024-03-25T06:03:23;100372.75;;;17.37;67.34
54556;BME280;57291;37.520;15.106;2024-03-25T06:05:49;100386.03;;;17.63;66.81
54556;BME280;57291;37.520;15.106;2024-03-25T06:08:16;100373.53;;;17.94;66.58
54556;BME280;57291;37.520;15.106;2024-03-25T06:10:46;100363.31;;;18.26;65.86
54556;BME280;57291;37.520;15.106;2024-03-25T06:13:13;100360.84;;;18.52;64.00
54556;BME280;57291;37.520;15.106;2024-03-25T06:15:40;100363.75;;;18.76;62.47
54556;BME280;57291;37.520;15.106;2024-03-25T06:18:07;100357.13;;;19.15;62.76
54556;BME280;57291;37.520;15.106;2024-03-25T06:20:33;100370.78;;;19.51;61.54
54556;BME280;57291;37.520;15.106;2024-03-25T06:23:00;100370.69;;;19.86;60.29
54556;BME280;57291;37.520;15.106;2024-03-25T06:25:27;100376.53;;;20.04;58.21
54556;BME280;57291;37.520;15.106;2024-03-25T06:27:55;100370.81;;;20.16;58.08
54556;BME280;57291;37.520;15.106;2024-03-25T06:30:22;100377.41;;;20.08;57.48
54556;BME280;57291;37.520;15.106;2024-03-25T06:33:06;100390.31;;;20.04;57.32
54556;BME280;57291;37.520;15.106;2024-03-25T06:35:51;100390.13;;;19.93;57.60
54556;BME280;57291;37.520;15.106;2024-03-25T06:38:20;100402.31;;;19.69;57.20
54556;BME280;57291;37.520;15.106;2024-03-25T06:40:47;100412.66;;;19.56;57.92
54556;BME280;57291;37.520;15.106;2024-03-25T06:43:13;100418.03;;;19.49;58.23
54556;BME280;57291;37.520;15.106;2024-03-25T06:45:42;100420.75;;;19.65;58.38
54556;BME280;57291;37.520;15.106;2024-03-25T06:48:08;100419.38;;;19.98;58.19
54556;BME280;57291;37.520;15.106;2024-03-25T06:50:34;100435.47;;;20.15;57.52
54556;BME280;57291;37.520;15.106;2024-03-25T06:53:02;100432.47;;;20.24;56.07
54556;BME280;57291;37.520;15.106;2024-03-25T06:55:33;100430.63;;;20.54;56.54
54556;BME280;57291;37.520;15.106;2024-03-25T06:58:00;100431.94;;;20.87;56.02
54556;BME280;57291;37.520;15.106;2024-03-25T07:00:26;100429.06;;;21.06;55.19
54556;BME280;57291;37.520;15.106;2024-03-25T07:02:53;100431.97;;;20.91;54.59
54556;BME280;57291;37.520;15.106;2024-03-25T07:05:19;100434.31;;;20.89;55.52
54556;BME280;57291;37.520;15.106;2024-03-25T07:07:45;100437.59;;;20.98;55.71
54556;BME280;57291;37.520;15.106;2024-03-25T07:10:11;100433.34;;;21.04;55.45
54556;BME280;57291;37.520;15.106;2024-03-25T07:12:38;100430.94;;;21.29;55.08
54556;BME280;57291;37.520;15.106;2024-03-25T07:15:04;100438.91;;;21.68;53.57
54556;BME280;57291;37.520;15.106;2024-03-25T07:17:31;100446.13;;;22.13;52.69
54556;BME280;57291;37.520;15.106;2024-03-25T07:19:57;100450.31;;;22.34;52.37
54556;BME280;57291;37.520;15.106;2024-03-25T07:22:23;100450.84;;;22.50;53.05
54556;BME280;57291;37.520;15.106;2024-03-25T07:24:49;100454.16;;;22.70;52.69
54556;BME280;57291;37.520;15.106;2024-03-25T07:27:21;100448.06;;;22.50;52.26
54556;BME280;57291;37.520;15.106;2024-03-25T07:29:47;100470.69;;;22.56;52.93
54556;BME280;57291;37.520;15.106;2024-03-25T07:32:13;100490.03;;;22.52;51.94
54556;BME280;57291;37.520;15.106;2024-03-25T07:34:40;100496.06;;;22.61;52.64
54556;BME280;57291;37.520;15.106;2024-03-25T07:37:06;100503.88;;;22.52;53.85
54556;BME280;57291;37.520;15.106;2024-03-25T07:39:33;100509.31;;;22.41;54.27
54556;BME280;57291;37.520;15.106;2024-03-25T07:41:59;100526.09;;;22.18;55.38
54556;BME280;57291;37.520;15.106;2024-03-25T07:44:25;100531.69;;;22.26;55.76
54556;BME280;57291;37.520;15.106;2024-03-25T07:46:51;100541.72;;;22.07;57.09
54556;BME280;57291;37.520;15.106;2024-03-25T07:49:17;100550.94;;;22.15;55.37
54556;BME280;57291;37.520;15.106;2024-03-25T07:51:44;100556.66;;;22.29;54.83
54556;BME280;57291;37.520;15.106;2024-03-25T07:54:10;100558.63;;;22.29;53.02
54556;BME280;57291;37.520;15.106;2024-03-25T07:56:40;100566.25;;;22.05;54.84
54556;BME280;57291;37.520;15.106;2024-03-25T07:59:06;100572.13;;;22.04;53.80
54556;BME280;57291;37.520;15.106;2024-03-25T08:01:32;100571.34;;;22.03;53.80
54556;BME280;57291;37.520;15.106;2024-03-25T08:03:58;100570.31;;;21.85;54.59
54556;BME280;57291;37.520;15.106;2024-03-25T08:06:25;100582.41;;;21.73;53.89
54556;BME280;57291;37.520;15.106;2024-03-25T08:08:51;100586.75;;;21.44;56.80
54556;BME280;57291;37.520;15.106;2024-03-25T08:11:18;100596.69;;;21.25;55.67
54556;BME280;57291;37.520;15.106;2024-03-25T08:13:44;100605.13;;;21.33;55.69
54556;BME280;57291;37.520;15.106;2024-03-25T08:16:10;100610.50;;;21.25;55.96
54556;BME280;57291;37.520;15.106;2024-03-25T08:18:36;100613.84;;;21.12;56.46
54556;BME280;57291;37.520;15.106;2024-03-25T08:21:03;100622.34;;;20.99;56.71
54556;BME280;57291;37.520;15.106;2024-03-25T08:23:29;100612.13;;;20.80;57.36
54556;BME280;57291;37.520;15.106;2024-03-25T08:25:55;100614.44;;;20.78;57.68
54556;BME280;57291;37.520;15.106;2024-03-25T08:28:22;100613.66;;;20.78;58.16
54556;BME280;57291;37.520;15.106;2024-03-25T08:30:48;100619.25;;;20.81;57.36
54556;BME280;57291;37.520;15.106;2024-03-25T08:33:15;100609.47;;;20.65;57.80
54556;BME280;57291;37.520;15.106;2024-03-25T08:35:41;100616.84;;;20.57;57.78
54556;BME280;57291;37.520;15.106;2024-03-25T08:38:08;100615.84;;;20.49;58.96
54556;BME280;57291;37.520;15.106;2024-03-25T08:40:35;100625.19;;;20.60;58.01
54556;BME280;57291;37.520;15.106;2024-03-25T08:43:01;100612.38;;;20.72;57.50
54556;BME280;57291;37.520;15.106;2024-03-25T08:45:27;100613.88;;;20.50;57.85
54556;BME280;57291;37.520;15.106;2024-03-25T08:47:53;100604.31;;;20.44;57.85
54556;BME280;57291;37.520;15.106;2024-03-25T08:50:19;100604.41;;;20.28;57.64
54556;BME280;57291;37.520;15.106;2024-03-25T08:52:46;100595.63;;;20.22;57.35
54556;BME280;57291;37.520;15.106;2024-03-25T08:55:13;100604.97;;;19.98;58.16
54556;BME280;57291;37.520;15.106;2024-03-25T08:57:39;100605.59;;;19.72;59.25
54556;BME280;57291;37.520;15.106;2024-03-25T09:00:06;100600.09;;;19.56;59.90
54556;BME280;57291;37.520;15.106;2024-03-25T09:02:36;100595.28;;;19.69;59.87
54556;BME280;57291;37.520;15.106;2024-03-25T09:05:02;100583.56;;;19.56;60.45
54556;BME280;57291;37.520;15.106;2024-03-25T09:07:31;100601.69;;;19.57;61.29
54556;BME280;57291;37.520;15.106;2024-03-25T09:09:58;100605.78;;;19.63;61.58
54556;BME280;57291;37.520;15.106;2024-03-25T09:12:43;100613.72;;;19.65;61.92
54556;BME280;57291;37.520;15.106;2024-03-25T09:15:09;100611.72;;;19.81;62.95
54556;BME280;57291;37.520;15.106;2024-03-25T09:17:40;100602.13;;;19.59;63.31
54556;BME280;57291;37.520;15.106;2024-03-25T09:20:07;100603.94;;;19.52;65.22
54556;BME280;57291;37.520;15.106;2024-03-25T09:22:43;100607.75;;;19.47;65.95
54556;BME280;57291;37.520;15.106;2024-03-25T09:25:10;100616.22;;;19.38;67.64
54556;BME280;57291;37.520;15.106;2024-03-25T09:27:36;100620.63;;;19.59;69.28
54556;BME280;57291;37.520;15.106;2024-03-25T09:30:03;100629.53;;;19.36;69.91
54556;BME280;57291;37.520;15.106;2024-03-25T09:32:29;100622.88;;;19.21;72.55
54556;BME280;57291;37.520;15.106;2024-03-25T09:34:59;100629.63;;;19.40;73.87
54556;BME280;57291;37.520;15.106;2024-03-25T09:37:25;100619.00;;;19.23;78.57
54556;BME280;57291;37.520;15.106;2024-03-25T09:39:53;100608.47;;;19.44;79.23
54556;BME280;57291;37.520;15.106;2024-03-25T09:42:32;100624.59;;;19.77;75.90
54556;BME280;57291;37.520;15.106;2024-03-25T09:44:59;100623.16;;;19.83;74.05
54556;BME280;57291;37.520;15.106;2024-03-25T09:47:26;100611.28;;;19.99;74.73
54556;BME280;57291;37.520;15.106;2024-03-25T09:49:54;100616.13;;;19.86;71.29
54556;BME280;57291;37.520;15.106;2024-03-25T09:52:21;100614.09;;;19.83;70.67
54556;BME280;57291;37.520;15.106;2024-03-25T09:54:47;100614.94;;;19.67;69.59
54556;BME280;57291;37.520;15.106;2024-03-25T09:57:14;100621.84;;;19.77;72.85
54556;BME280;57291;37.520;15.106;2024-03-25T09:59:40;100624.75;;;19.65;72.15
54556;BME280;57291;37.520;15.106;2024-03-25T10:02:10;100635.28;;;19.63;73.62
54556;BME280;57291;37.520;15.106;2024-03-25T10:04:48;100636.72;;;19.73;73.62
54556;BME280;57291;37.520;15.106;2024-03-25T10:07:24;100659.41;;;19.66;73.80
54556;BME280;57291;37.520;15.106;2024-03-25T10:09:52;100665.81;;;19.38;74.18
54556;BME280;57291;37.520;15.106;2024-03-25T10:12:19;100632.03;;;18.94;74.07
54556;BME280;57291;37.520;15.106;2024-03-25T10:14:45;100649.97;;;18.88;74.30
54556;BME280;57291;37.520;15.106;2024-03-25T10:17:12;100670.50;;;18.90;73.93
54556;BME280;57291;37.520;15.106;2024-03-25T10:19:38;100657.56;;;18.79;78.35
54556;BME280;57291;37.520;15.106;2024-03-25T10:22:05;100651.94;;;18.59;81.46
54556;BME280;57291;37.520;15.106;2024-03-25T10:27:05;100641.72;;;18.32;82.05
54556;BME280;57291;37.520;15.106;2024-03-25T10:29:32;100620.91;;;18.18;86.11
54556;BME280;57291;37.520;15.106;2024-03-25T10:31:59;100612.34;;;18.08;90.04
54556;BME280;57291;37.520;15.106;2024-03-25T10:34:26;100600.09;;;18.05;90.84
54556;BME280;57291;37.520;15.106;2024-03-25T10:36:57;100601.09;;;18.13;91.50
54556;BME280;57291;37.520;15.106;2024-03-25T10:39:26;100602.63;;;18.26;93.41
54556;BME280;57291;37.520;15.106;2024-03-25T10:41:56;100635.22;;;18.24;90.56
54556;BME280;57291;37.520;15.106;2024-03-25T10:44:26;100637.47;;;18.34;90.66
54556;BME280;57291;37.520;15.106;2024-03-25T10:47:02;100620.97;;;18.34;90.17
54556;BME280;57291;37.520;15.106;2024-03-25T10:49:37;100623.84;;;18.25;89.64
54556;BME280;57291;37.520;15.106;2024-03-25T10:52:06;100616.75;;;18.24;89.53
54556;BME280;57291;37.520;15.106;2024-03-25T10:54:33;100605.09;;;18.43;89.65
54556;BME280;57291;37.520;15.106;2024-03-25T10:57:00;100604.09;;;18.36;89.07
54556;BME280;57291;37.520;15.106;2024-03-25T10:59:30;100581.19;;;18.32;88.82
54556;BME280;57291;37.520;15.106;2024-03-25T11:01:56;100586.63;;;18.44;91.13
54556;BME280;57291;37.520;15.106;2024-03-25T11:04:26;100597.16;;;18.70;89.84
54556;BME280;57291;37.520;15.106;2024-03-25T11:06:53;100608.91;;;18.98;89.80
54556;BME280;57291;37.520;15.106;2024-03-25T11:09:25;100599.88;;;19.14;88.81
54556;BME280;57291;37.520;15.106;2024-03-25T11:11:53;100570.44;;;19.18;85.73
54556;BME280;57291;37.520;15.106;2024-03-25T11:14:19;100560.44;;;19.10;83.29
54556;BME280;57291;37.520;15.106;2024-03-25T11:16:53;100564.16;;;19.02;82.52
54556;BME280;57291;37.520;15.106;2024-03-25T11:19:20;100558.84;;;18.93;81.36
54556;BME280;57291;37.520;15.106;2024-03-25T11:21:47;100557.06;;;18.85;85.08
54556;BME280;57291;37.520;15.106;2024-03-25T11:24:13;100556.19;;;18.96;85.12
54556;BME280;57291;37.520;15.106;2024-03-25T11:26:42;100551.00;;;19.11;84.87
54556;BME280;57291;37.520;15.106;2024-03-25T11:29:08;100559.00;;;19.00;80.80
54556;BME280;57291;37.520;15.106;2024-03-25T11:31:38;100560.59;;;18.85;82.60
54556;BME280;57291;37.520;15.106;2024-03-25T11:34:06;100559.38;;;18.83;85.00
54556;BME280;57291;37.520;15.106;2024-03-25T11:36:34;100557.94;;;18.73;85.65
54556;BME280;57291;37.520;15.106;2024-03-25T11:39:05;100550.38;;;18.70;83.96
54556;BME280;57291;37.520;15.106;2024-03-25T11:41:40;100557.53;;;18.59;86.42
54556;BME280;57291;37.520;15.106;2024-03-25T11:44:08;100549.53;;;18.38;88.13
54556;BME280;57291;37.520;15.106;2024-03-25T11:46:39;100544.94;;;18.14;90.93
54556;BME280;57291;37.520;15.106;2024-03-25T11:49:06;100527.19;;;18.11;91.56
54556;BME280;57291;37.520;15.106;2024-03-25T11:51:33;100539.81;;;18.28;91.58
54556;BME280;57291;37.520;15.106;2024-03-25T11:54:03;100535.31;;;18.36;89.71
54556;BME280;57291;37.520;15.106;2024-03-25T11:56:32;100536.28;;;18.27;88.73
54556;BME280;57291;37.520;15.106;2024-03-25T11:58:59;100525.28;;;18.27;89.71
54556;BME280;57291;37.520;15.106;2024-03-25T12:01:27;100510.06;;;18.46;89.64
54556;BME280;57291;37.520;15.106;2024-03-25T12:03:53;100503.19;;;18.56;86.72
54556;BME280;57291;37.520;15.106;2024-03-25T12:06:20;100509.06;;;18.70;83.74
54556;BME280;57291;37.520;15.106;2024-03-25T12:08:46;100501.00;;;18.93;79.61
54556;BME280;57291;37.520;15.106;2024-03-25T12:11:31;100503.84;;;19.12;78.46
54556;BME280;57291;37.520;15.106;2024-03-25T12:14:00;100507.28;;;19.25;77.60
54556;BME280;57291;37.520;15.106;2024-03-25T12:16:26;100507.69;;;19.27;77.60
54556;BME280;57291;37.520;15.106;2024-03-25T12:18:53;100497.72;;;19.38;76.09
54556;BME280;57291;37.520;15.106;2024-03-25T12:21:20;100496.75;;;19.31;76.93
54556;BME280;57291;37.520;15.106;2024-03-25T12:23:47;100494.22;;;19.22;78.45
54556;BME280;57291;37.520;15.106;2024-03-25T12:26:13;100494.84;;;19.15;79.95
54556;BME280;57291;37.520;15.106;2024-03-25T12:28:40;100503.13;;;19.15;79.96
54556;BME280;57291;37.520;15.106;2024-03-25T12:31:10;100504.38;;;19.02;81.34
54556;BME280;57291;37.520;15.106;2024-03-25T12:33:41;100492.06;;;18.80;81.38
54556;BME280;57291;37.520;15.106;2024-03-25T12:36:07;100494.88;;;18.84;82.13
54556;BME280;57291;37.520;15.106;2024-03-25T12:38:34;100496.41;;;18.81;82.59
54556;BME280;57291;37.520;15.106;2024-03-25T12:41:05;100498.59;;;18.91;80.59
54556;BME280;57291;37.520;15.106;2024-03-25T12:43:32;100491.25;;;18.95;82.32